sensor_id;sensor_type;location;lat;lon;timestamp;temperature;humidity
29501;DHT22;16450;50.288;10.966;2023-12-07T00:00:37;0.70;99.90
29501;DHT22;16450;50.288;10.966;2023-12-07T00:03:39;0.60;99.90
29501;DHT22;16450;50.288;10.966;2023-12-07T00:06:41;0.70;99.90
29501;DHT22;16450;50.288;10.966;2023-12-07T00:09:43;0.70;99.90
29501;DHT22;16450;50.288;10.966;2023-12-07T00:12:44;0.70;99.90
29501;DHT22;16450;50.288;10.966;2023-12-07T00:15:46;0.70;99.90
29501;DHT22;16450;50.288;10.966;2023-12-07T00:18:49;0.60;99.90
29501;DHT22;16450;50.288;10.966;2023-12-07T00:21:51;0.60;99.90
29501;DHT22;16450;50.288;10.966;2023-12-07T00:24:53;0.60;99.90
29501;DHT22;16450;50.288;10.966;2023-12-07T00:27:54;0.60;99.90
29501;DHT22;16450;50.288;10.966;2023-12-07T00:30:56;0.50;99.90
29501;DHT22;16450;50.288;10.966;2023-12-07T00:33:59;0.50;99.90
29501;DHT22;16450;50.288;10.966;2023-12-07T00:37:01;0.40;99.90
29501;DHT22;16450;50.288;10.966;2023-12-07T00:40:03;0.40;99.90
29501;DHT22;16450;50.288;10.966;2023-12-07T00:43:06;0.40;99.90
29501;DHT22;16450;50.288;10.966;2023-12-07T00:46:08;0.30;99.90
29501;DHT22;16450;50.288;10.966;2023-12-07T00:49:10;0.30;99.90
29501;DHT22;16450;50.288;10.966;2023-12-07T00:52:13;0.20;99.90
29501;DHT22;16450;50.288;10.966;2023-12-07T00:55:15;0.20;99.90
29501;DHT22;16450;50.288;10.966;2023-12-07T00:58:17;0.20;99.90
29501;DHT22;16450;50.288;10.966;2023-12-07T01:01:19;0.20;99.90
29501;DHT22;16450;50.288;10.966;2023-12-07T01:04:21;0.20;99.90
29501;DHT22;16450;50.288;10.966;2023-12-07T01:07:23;0.30;99.90
29501;DHT22;16450;50.288;10.966;2023-12-07T01:10:25;0.30;99.90
29501;DHT22;16450;50.288;10.966;2023-12-07T01:13:27;0.30;99.90
29501;DHT22;16450;50.288;10.966;2023-12-07T01:16:29;0.30;99.90
29501;DHT22;16450;50.288;10.966;2023-12-07T01:19:30;0.40;99.90
29501;DHT22;16450;50.288;10.966;2023-12-07T01:22:32;0.40;99.90
29501;DHT22;16450;50.288;10.966;2023-12-07T01:25:34;0.40;99.90
29501;DHT22;16450;50.288;10.966;2023-12-07T01:28:36;0.40;99.90
29501;DHT22;16450;50.288;10.966;2023-12-07T01:31:39;0.40;99.90
29501;DHT22;16450;50.288;10.966;2023-12-07T01:34:41;0.50;99.90
29501;DHT22;16450;50.288;10.966;2023-12-07T01:37:42;0.50;99.90
29501;DHT22;16450;50.288;10.966;2023-12-07T01:40:44;0.50;99.90
29501;DHT22;16450;50.288;10.966;2023-12-07T01:43:47;0.60;99.90
29501;DHT22;16450;50.288;10.966;2023-12-07T01:46:49;0.50;99.90
29501;DHT22;16450;50.288;10.966;2023-12-07T01:49:51;0.60;99.90
29501;DHT22;16450;50.288;10.966;2023-12-07T01:53:00;0.60;99.90
29501;DHT22;16450;50.288;10.966;2023-12-07T01:56:02;0.60;99.90
29501;DHT22;16450;50.288;10.966;2023-12-07T01:59:05;0.60;99.90
29501;DHT22;16450;50.288;10.966;2023-12-07T02:02:07;0.60;99.90
29501;DHT22;16450;50.288;10.966;2023-12-07T02:05:09;0.60;99.90
29501;DHT22;16450;50.288;10.966;2023-12-07T02:08:11;0.60;99.90
29501;DHT22;16450;50.288;10.966;2023-12-07T02:11:13;0.60;99.90
29501;DHT22;16450;50.288;10.966;2023-12-07T02:14:15;0.60;99.90
29501;DHT22;16450;50.288;10.966;2023-12-07T02:21:27;0.60;99.90
29501;DHT22;16450;50.288;10.966;2023-12-07T02:24:33;0.60;99.90
29501;DHT22;16450;50.288;10.966;2023-12-07T02:27:44;0.60;99.90
29501;DHT22;16450;50.288;10.966;2023-12-07T02:30:49;0.60;99.90
29501;DHT22;16450;50.288;10.966;2023-12-07T02:33:51;0.60;99.90
29501;DHT22;16450;50.288;10.966;2023-12-07T02:36:54;0.60;99.90
29501;DHT22;16450;50.288;10.966;2023-12-07T02:40:00;0.70;99.90
29501;DHT22;16450;50.288;10.966;2023-12-07T02:43:03;0.60;99.90
29501;DHT22;16450;50.288;10.966;2023-12-07T02:46:05;0.60;99.90
29501;DHT22;16450;50.288;10.966;2023-12-07T02:49:07;0.70;99.90
29501;DHT22;16450;50.288;10.966;2023-12-07T02:52:10;0.60;99.90
29501;DHT22;16450;50.288;10.966;2023-12-07T02:55:12;0.70;99.90
29501;DHT22;16450;50.288;10.966;2023-12-07T02:58:14;0.60;99.90
29501;DHT22;16450;50.288;10.966;2023-12-07T03:01:15;0.70;99.90
29501;DHT22;16450;50.288;10.966;2023-12-07T03:04:17;0.70;99.90
29501;DHT22;16450;50.288;10.966;2023-12-07T03:07:19;0.70;99.90
29501;DHT22;16450;50.288;10.966;2023-12-07T03:10:21;0.70;99.90
29501;DHT22;16450;50.288;10.966;2023-12-07T03:13:23;0.70;99.90
29501;DHT22;16450;50.288;10.966;2023-12-07T03:16:25;0.70;99.90
29501;DHT22;16450;50.288;10.966;2023-12-07T03:19:27;0.60;99.90
29501;DHT22;16450;50.288;10.966;2023-12-07T03:22:29;0.60;99.90
29501;DHT22;16450;50.288;10.966;2023-12-07T03:25:31;0.60;99.90
29501;DHT22;16450;50.288;10.966;2023-12-07T03:28:33;0.60;99.90
29501;DHT22;16450;50.288;10.966;2023-12-07T03:31:35;0.60;99.90
29501;DHT22;16450;50.288;10.966;2023-12-07T03:34:37;0.60;99.90
29501;DHT22;16450;50.288;10.966;2023-12-07T03:37:39;0.60;99.90
29501;DHT22;16450;50.288;10.966;2023-12-07T03:40:41;0.60;99.90
29501;DHT22;16450;50.288;10.966;2023-12-07T03:43:43;0.60;99.90
29501;DHT22;16450;50.288;10.966;2023-12-07T03:46:46;0.60;99.90
29501;DHT22;16450;50.288;10.966;2023-12-07T03:49:48;0.60;99.90
29501;DHT22;16450;50.288;10.966;2023-12-07T03:52:50;0.60;99.90
29501;DHT22;16450;50.288;10.966;2023-12-07T03:55:52;0.60;99.90
29501;DHT22;16450;50.288;10.966;2023-12-07T03:58:54;0.60;99.90
29501;DHT22;16450;50.288;10.966;2023-12-07T04:01:56;0.60;99.90
29501;DHT22;16450;50.288;10.966;2023-12-07T04:04:58;0.60;99.90
29501;DHT22;16450;50.288;10.966;2023-12-07T04:08:03;0.60;99.90
29501;DHT22;16450;50.288;10.966;2023-12-07T04:11:06;0.60;99.90
29501;DHT22;16450;50.288;10.966;2023-12-07T04:14:08;0.60;99.90
29501;DHT22;16450;50.288;10.966;2023-12-07T04:17:10;0.60;99.90
29501;DHT22;16450;50.288;10.966;2023-12-07T04:20:12;0.60;99.90
29501;DHT22;16450;50.288;10.966;2023-12-07T04:23:17;0.60;99.90
29501;DHT22;16450;50.288;10.966;2023-12-07T04:26:19;0.60;99.90
29501;DHT22;16450;50.288;10.966;2023-12-07T04:29:21;0.60;99.90
29501;DHT22;16450;50.288;10.966;2023-12-07T04:32:22;0.60;99.90
29501;DHT22;16450;50.288;10.966;2023-12-07T04:35:25;0.60;99.90
29501;DHT22;16450;50.288;10.966;2023-12-07T04:38:27;0.50;99.90
29501;DHT22;16450;50.288;10.966;2023-12-07T04:41:29;0.50;99.90
29501;DHT22;16450;50.288;10.966;2023-12-07T04:44:31;0.50;99.90
29501;DHT22;16450;50.288;10.966;2023-12-07T04:47:32;0.60;99.90
29501;DHT22;16450;50.288;10.966;2023-12-07T04:50:35;0.60;99.90
29501;DHT22;16450;50.288;10.966;2023-12-07T04:53:36;0.60;99.90
29501;DHT22;16450;50.288;10.966;2023-12-07T04:56:42;0.50;99.90
29501;DHT22;16450;50.288;10.966;2023-12-07T04:59:44;0.60;99.90
29501;DHT22;16450;50.288;10.966;2023-12-07T05:02:49;0.60;99.90
29501;DHT22;16450;50.288;10.966;2023-12-07T05:05:51;0.50;99.90
29501;DHT22;16450;50.288;10.966;2023-12-07T05:08:52;0.60;99.90
29501;DHT22;16450;50.288;10.966;2023-12-07T05:11:54;0.60;99.90
29501;DHT22;16450;50.288;10.966;2023-12-07T05:14:56;0.60;99.90
29501;DHT22;16450;50.288;10.966;2023-12-07T05:17:58;0.60;99.90
29501;DHT22;16450;50.288;10.966;2023-12-07T05:21:00;0.60;99.90
29501;DHT22;16450;50.288;10.966;2023-12-07T05:24:02;0.60;99.90
29501;DHT22;16450;50.288;10.966;2023-12-07T05:27:04;0.60;99.90
29501;DHT22;16450;50.288;10.966;2023-12-07T05:30:06;0.60;99.90
29501;DHT22;16450;50.288;10.966;2023-12-07T05:33:09;0.60;99.90
29501;DHT22;16450;50.288;10.966;2023-12-07T05:36:11;0.60;99.90
29501;DHT22;16450;50.288;10.966;2023-12-07T05:39:13;0.60;99.90
29501;DHT22;16450;50.288;10.966;2023-12-07T05:42:15;0.60;99.90
29501;DHT22;16450;50.288;10.966;2023-12-07T05:45:17;0.60;99.90
29501;DHT22;16450;50.288;10.966;2023-12-07T05:48:19;0.60;99.90
29501;DHT22;16450;50.288;10.966;2023-12-07T05:51:22;0.60;99.90
29501;DHT22;16450;50.288;10.966;2023-12-07T05:54:24;0.60;99.90
29501;DHT22;16450;50.288;10.966;2023-12-07T05:57:26;0.60;99.90
29501;DHT22;16450;50.288;10.966;2023-12-07T06:00:28;0.70;99.90
29501;DHT22;16450;50.288;10.966;2023-12-07T06:03:30;0.60;99.90
29501;DHT22;16450;50.288;10.966;2023-12-07T06:06:32;0.60;99.90
29501;DHT22;16450;50.288;10.966;2023-12-07T06:09:33;0.60;99.90
29501;DHT22;16450;50.288;10.966;2023-12-07T06:12:35;0.60;99.90
29501;DHT22;16450;50.288;10.966;2023-12-07T06:15:37;0.60;99.90
29501;DHT22;16450;50.288;10.966;2023-12-07T06:18:39;0.60;99.90
29501;DHT22;16450;50.288;10.966;2023-12-07T06:21:41;0.70;99.90
29501;DHT22;16450;50.288;10.966;2023-12-07T06:24:44;0.70;99.90
29501;DHT22;16450;50.288;10.966;2023-12-07T06:27:46;0.70;99.90
29501;DHT22;16450;50.288;10.966;2023-12-07T06:30:48;0.70;99.90
29501;DHT22;16450;50.288;10.966;2023-12-07T06:33:51;0.70;99.90
29501;DHT22;16450;50.288;10.966;2023-12-07T06:36:53;0.70;99.90
29501;DHT22;16450;50.288;10.966;2023-12-07T06:39:55;0.70;99.90
29501;DHT22;16450;50.288;10.966;2023-12-07T06:42:57;0.70;99.90
29501;DHT22;16450;50.288;10.966;2023-12-07T06:45:58;0.70;99.90
29501;DHT22;16450;50.288;10.966;2023-12-07T06:49:00;0.70;99.90
29501;DHT22;16450;50.288;10.966;2023-12-07T06:52:03;0.70;99.90
29501;DHT22;16450;50.288;10.966;2023-12-07T06:55:06;0.70;99.90
29501;DHT22;16450;50.288;10.966;2023-12-07T06:58:08;0.70;99.90
29501;DHT22;16450;50.288;10.966;2023-12-07T07:01:12;0.70;99.90
29501;DHT22;16450;50.288;10.966;2023-12-07T07:04:15;0.70;99.90
29501;DHT22;16450;50.288;10.966;2023-12-07T07:07:18;0.70;99.90
29501;DHT22;16450;50.288;10.966;2023-12-07T07:10:19;0.70;99.90
29501;DHT22;16450;50.288;10.966;2023-12-07T07:13:21;0.70;99.90
29501;DHT22;16450;50.288;10.966;2023-12-07T07:16:23;0.70;99.90
29501;DHT22;16450;50.288;10.966;2023-12-07T07:19:25;0.70;99.90
29501;DHT22;16450;50.288;10.966;2023-12-07T07:22:27;0.70;99.90
29501;DHT22;16450;50.288;10.966;2023-12-07T07:25:29;0.70;99.90
29501;DHT22;16450;50.288;10.966;2023-12-07T07:28:32;0.70;99.90
29501;DHT22;16450;50.288;10.966;2023-12-07T07:31:34;0.80;99.90
29501;DHT22;16450;50.288;10.966;2023-12-07T07:34:38;0.80;99.90
29501;DHT22;16450;50.288;10.966;2023-12-07T07:37:41;0.70;99.90
29501;DHT22;16450;50.288;10.966;2023-12-07T07:40:43;0.80;99.90
29501;DHT22;16450;50.288;10.966;2023-12-07T07:43:47;0.70;99.90
29501;DHT22;16450;50.288;10.966;2023-12-07T07:46:49;0.80;99.90
29501;DHT22;16450;50.288;10.966;2023-12-07T07:49:51;0.80;99.90
29501;DHT22;16450;50.288;10.966;2023-12-07T07:52:53;0.80;99.90
29501;DHT22;16450;50.288;10.966;2023-12-07T07:55:56;0.80;99.90
29501;DHT22;16450;50.288;10.966;2023-12-07T07:58:58;0.80;99.90
29501;DHT22;16450;50.288;10.966;2023-12-07T08:02:02;0.80;99.90
29501;DHT22;16450;50.288;10.966;2023-12-07T08:05:04;0.80;99.90
29501;DHT22;16450;50.288;10.966;2023-12-07T08:08:06;0.90;99.90
29501;DHT22;16450;50.288;10.966;2023-12-07T08:11:09;0.90;99.90
29501;DHT22;16450;50.288;10.966;2023-12-07T08:14:11;0.90;99.90
29501;DHT22;16450;50.288;10.966;2023-12-07T08:17:14;0.90;99.90
29501;DHT22;16450;50.288;10.966;2023-12-07T08:20:16;0.90;99.90
29501;DHT22;16450;50.288;10.966;2023-12-07T08:23:18;1.00;99.90
29501;DHT22;16450;50.288;10.966;2023-12-07T08:26:20;1.00;99.90
29501;DHT22;16450;50.288;10.966;2023-12-07T08:29:22;1.00;99.90
29501;DHT22;16450;50.288;10.966;2023-12-07T08:32:23;1.00;99.90
29501;DHT22;16450;50.288;10.966;2023-12-07T08:35:27;1.00;99.90
29501;DHT22;16450;50.288;10.966;2023-12-07T08:38:29;1.00;99.90
29501;DHT22;16450;50.288;10.966;2023-12-07T08:41:31;1.10;99.90
29501;DHT22;16450;50.288;10.966;2023-12-07T08:44:32;1.10;99.90
29501;DHT22;16450;50.288;10.966;2023-12-07T08:47:34;1.10;99.90
29501;DHT22;16450;50.288;10.966;2023-12-07T08:50:36;1.10;99.90
29501;DHT22;16450;50.288;10.966;2023-12-07T08:53:39;1.10;99.90
29501;DHT22;16450;50.288;10.966;2023-12-07T08:56:44;1.10;99.90
29501;DHT22;16450;50.288;10.966;2023-12-07T08:59:46;1.10;99.90
29501;DHT22;16450;50.288;10.966;2023-12-07T09:02:48;1.20;99.90
29501;DHT22;16450;50.288;10.966;2023-12-07T09:05:50;1.20;99.90
29501;DHT22;16450;50.288;10.966;2023-12-07T09:08:52;1.20;99.90
29501;DHT22;16450;50.288;10.966;2023-12-07T09:11:54;1.30;99.90
29501;DHT22;16450;50.288;10.966;2023-12-07T09:14:56;1.30;99.90
29501;DHT22;16450;50.288;10.966;2023-12-07T09:17:58;1.30;99.90
29501;DHT22;16450;50.288;10.966;2023-12-07T09:21:00;1.40;99.90
29501;DHT22;16450;50.288;10.966;2023-12-07T09:24:02;1.40;99.90
29501;DHT22;16450;50.288;10.966;2023-12-07T09:27:04;1.40;99.90
29501;DHT22;16450;50.288;10.966;2023-12-07T09:30:07;1.50;99.90
29501;DHT22;16450;50.288;10.966;2023-12-07T09:33:13;1.50;99.90
29501;DHT22;16450;50.288;10.966;2023-12-07T09:36:18;1.50;99.90
29501;DHT22;16450;50.288;10.966;2023-12-07T09:39:20;1.50;99.90
29501;DHT22;16450;50.288;10.966;2023-12-07T09:42:22;1.50;99.90
29501;DHT22;16450;50.288;10.966;2023-12-07T09:45:32;1.50;99.90
29501;DHT22;16450;50.288;10.966;2023-12-07T09:48:37;1.60;99.90
29501;DHT22;16450;50.288;10.966;2023-12-07T09:51:42;1.60;99.90
29501;DHT22;16450;50.288;10.966;2023-12-07T09:54:45;1.70;99.90
29501;DHT22;16450;50.288;10.966;2023-12-07T09:57:48;1.70;99.90
29501;DHT22;16450;50.288;10.966;2023-12-07T10:00:50;1.70;99.90
29501;DHT22;16450;50.288;10.966;2023-12-07T10:04:29;1.70;99.90
29501;DHT22;16450;50.288;10.966;2023-12-07T10:07:36;1.80;99.90
29501;DHT22;16450;50.288;10.966;2023-12-07T10:10:39;1.80;99.90
29501;DHT22;16450;50.288;10.966;2023-12-07T10:13:41;1.80;99.90
29501;DHT22;16450;50.288;10.966;2023-12-07T10:16:53;1.90;99.90
29501;DHT22;16450;50.288;10.966;2023-12-07T10:20:09;1.90;99.90
29501;DHT22;16450;50.288;10.966;2023-12-07T10:23:13;1.90;99.90
29501;DHT22;16450;50.288;10.966;2023-12-07T10:26:18;1.90;99.90
29501;DHT22;16450;50.288;10.966;2023-12-07T10:29:23;1.90;99.90
29501;DHT22;16450;50.288;10.966;2023-12-07T10:32:36;1.90;99.90
29501;DHT22;16450;50.288;10.966;2023-12-07T10:35:40;1.90;99.90
29501;DHT22;16450;50.288;10.966;2023-12-07T10:38:42;1.90;99.90
29501;DHT22;16450;50.288;10.966;2023-12-07T10:41:47;1.90;99.90
29501;DHT22;16450;50.288;10.966;2023-12-07T10:44:53;2.00;99.90
29501;DHT22;16450;50.288;10.966;2023-12-07T10:48:07;2.00;99.90
29501;DHT22;16450;50.288;10.966;2023-12-07T10:51:17;2.00;99.90
29501;DHT22;16450;50.288;10.966;2023-12-07T10:54:22;2.00;99.90
29501;DHT22;16450;50.288;10.966;2023-12-07T10:57:27;2.10;99.90
29501;DHT22;16450;50.288;10.966;2023-12-07T11:00:30;2.20;99.90
29501;DHT22;16450;50.288;10.966;2023-12-07T11:03:45;2.20;99.90
29501;DHT22;16450;50.288;10.966;2023-12-07T11:06:52;2.30;99.90
29501;DHT22;16450;50.288;10.966;2023-12-07T11:10:05;2.40;99.90
29501;DHT22;16450;50.288;10.966;2023-12-07T11:13:24;2.40;99.90
29501;DHT22;16450;50.288;10.966;2023-12-07T11:16:29;2.50;99.90
29501;DHT22;16450;50.288;10.966;2023-12-07T11:22:43;2.50;99.90
29501;DHT22;16450;50.288;10.966;2023-12-07T11:25:47;2.50;99.90
29501;DHT22;16450;50.288;10.966;2023-12-07T11:28:50;2.50;99.90
29501;DHT22;16450;50.288;10.966;2023-12-07T11:31:55;2.60;99.90
29501;DHT22;16450;50.288;10.966;2023-12-07T11:35:04;2.60;99.90
29501;DHT22;16450;50.288;10.966;2023-12-07T11:38:10;2.60;99.90
29501;DHT22;16450;50.288;10.966;2023-12-07T11:41:14;2.60;99.90
29501;DHT22;16450;50.288;10.966;2023-12-07T11:44:17;2.60;99.90
29501;DHT22;16450;50.288;10.966;2023-12-07T11:47:20;2.60;99.90
29501;DHT22;16450;50.288;10.966;2023-12-07T11:50:22;2.60;99.90
29501;DHT22;16450;50.288;10.966;2023-12-07T11:53:26;2.50;99.90
29501;DHT22;16450;50.288;10.966;2023-12-07T11:56:30;2.50;99.90
29501;DHT22;16450;50.288;10.966;2023-12-07T11:59:32;2.50;99.90
29501;DHT22;16450;50.288;10.966;2023-12-07T12:02:35;2.50;99.90
29501;DHT22;16450;50.288;10.966;2023-12-07T12:05:41;2.50;99.90
29501;DHT22;16450;50.288;10.966;2023-12-07T12:08:45;2.40;99.90
29501;DHT22;16450;50.288;10.966;2023-12-07T12:11:47;2.40;99.90
29501;DHT22;16450;50.288;10.966;2023-12-07T12:14:49;2.50;99.90
29501;DHT22;16450;50.288;10.966;2023-12-07T12:17:51;2.50;99.90
29501;DHT22;16450;50.288;10.966;2023-12-07T12:20:54;2.50;99.90
29501;DHT22;16450;50.288;10.966;2023-12-07T12:23:57;2.50;99.90
29501;DHT22;16450;50.288;10.966;2023-12-07T12:26:59;2.60;99.90
29501;DHT22;16450;50.288;10.966;2023-12-07T12:30:02;2.50;99.90
29501;DHT22;16450;50.288;10.966;2023-12-07T12:33:05;2.60;99.90
29501;DHT22;16450;50.288;10.966;2023-12-07T12:36:07;2.60;99.90
29501;DHT22;16450;50.288;10.966;2023-12-07T12:39:12;2.50;99.90
29501;DHT22;16450;50.288;10.966;2023-12-07T12:42:27;2.50;99.90
29501;DHT22;16450;50.288;10.966;2023-12-07T12:45:30;2.50;99.90
29501;DHT22;16450;50.288;10.966;2023-12-07T12:48:34;2.50;99.90
29501;DHT22;16450;50.288;10.966;2023-12-07T12:51:38;2.50;99.90
29501;DHT22;16450;50.288;10.966;2023-12-07T12:54:43;2.50;99.90
29501;DHT22;16450;50.288;10.966;2023-12-07T12:57:45;2.50;99.90
29501;DHT22;16450;50.288;10.966;2023-12-07T13:00:47;2.50;99.90
29501;DHT22;16450;50.288;10.966;2023-12-07T13:03:49;2.50;99.90
29501;DHT22;16450;50.288;10.966;2023-12-07T13:06:51;2.50;99.90
29501;DHT22;16450;50.288;10.966;2023-12-07T13:09:53;2.50;99.90
29501;DHT22;16450;50.288;10.966;2023-12-07T13:12:56;2.40;99.90
29501;DHT22;16450;50.288;10.966;2023-12-07T13:15:58;2.40;99.90
29501;DHT22;16450;50.288;10.966;2023-12-07T13:19:00;2.40;99.90
29501;DHT22;16450;50.288;10.966;2023-12-07T13:22:02;2.40;99.90
29501;DHT22;16450;50.288;10.966;2023-12-07T13:25:08;2.30;99.90
29501;DHT22;16450;50.288;10.966;2023-12-07T13:28:10;2.30;99.90
29501;DHT22;16450;50.288;10.966;2023-12-07T13:31:12;2.30;99.90
29501;DHT22;16450;50.288;10.966;2023-12-07T13:34:14;2.30;99.90
29501;DHT22;16450;50.288;10.966;2023-12-07T13:37:24;2.30;99.90
29501;DHT22;16450;50.288;10.966;2023-12-07T13:40:26;2.30;99.90
29501;DHT22;16450;50.288;10.966;2023-12-07T13:43:28;2.30;99.90
29501;DHT22;16450;50.288;10.966;2023-12-07T13:46:33;2.30;99.90
29501;DHT22;16450;50.288;10.966;2023-12-07T13:49:35;2.20;99.90
29501;DHT22;16450;50.288;10.966;2023-12-07T13:52:38;2.20;99.90
29501;DHT22;16450;50.288;10.966;2023-12-07T13:55:41;2.20;99.90
29501;DHT22;16450;50.288;10.966;2023-12-07T13:58:43;2.20;99.90
29501;DHT22;16450;50.288;10.966;2023-12-07T14:01:45;2.30;99.90
29501;DHT22;16450;50.288;10.966;2023-12-07T14:04:47;2.10;99.90
29501;DHT22;16450;50.288;10.966;2023-12-07T14:07:52;2.00;99.90
29501;DHT22;16450;50.288;10.966;2023-12-07T14:10:54;2.00;99.90
29501;DHT22;16450;50.288;10.966;2023-12-07T14:13:57;1.90;99.90
29501;DHT22;16450;50.288;10.966;2023-12-07T14:16:59;1.90;99.90
29501;DHT22;16450;50.288;10.966;2023-12-07T14:20:12;1.90;99.90
29501;DHT22;16450;50.288;10.966;2023-12-07T14:23:34;1.90;99.90
29501;DHT22;16450;50.288;10.966;2023-12-07T14:26:38;1.80;99.90
29501;DHT22;16450;50.288;10.966;2023-12-07T14:29:47;1.80;99.90
29501;DHT22;16450;50.288;10.966;2023-12-07T14:32:50;1.80;99.90
29501;DHT22;16450;50.288;10.966;2023-12-07T14:35:55;1.80;99.90
29501;DHT22;16450;50.288;10.966;2023-12-07T14:38:57;1.80;99.90
29501;DHT22;16450;50.288;10.966;2023-12-07T14:41:59;1.70;99.90
29501;DHT22;16450;50.288;10.966;2023-12-07T14:45:04;1.70;99.90
29501;DHT22;16450;50.288;10.966;2023-12-07T14:48:06;1.70;99.90
29501;DHT22;16450;50.288;10.966;2023-12-07T14:51:09;1.70;99.90
29501;DHT22;16450;50.288;10.966;2023-12-07T14:54:11;1.60;99.90
29501;DHT22;16450;50.288;10.966;2023-12-07T14:57:18;1.60;99.90
29501;DHT22;16450;50.288;10.966;2023-12-07T15:00:20;1.50;99.90
29501;DHT22;16450;50.288;10.966;2023-12-07T15:03:22;1.60;99.90
29501;DHT22;16450;50.288;10.966;2023-12-07T15:06:26;1.40;99.90
29501;DHT22;16450;50.288;10.966;2023-12-07T15:09:29;1.30;99.90
29501;DHT22;16450;50.288;10.966;2023-12-07T15:12:32;1.20;99.90
29501;DHT22;16450;50.288;10.966;2023-12-07T15:15:35;1.10;99.90
29501;DHT22;16450;50.288;10.966;2023-12-07T15:18:38;1.00;99.90
29501;DHT22;16450;50.288;10.966;2023-12-07T15:21:43;0.90;99.90
29501;DHT22;16450;50.288;10.966;2023-12-07T15:24:46;0.80;99.90
29501;DHT22;16450;50.288;10.966;2023-12-07T15:27:49;0.80;99.90
29501;DHT22;16450;50.288;10.966;2023-12-07T15:30:51;0.70;99.90
29501;DHT22;16450;50.288;10.966;2023-12-07T15:33:54;0.60;99.90
29501;DHT22;16450;50.288;10.966;2023-12-07T15:36:56;0.60;99.90
29501;DHT22;16450;50.288;10.966;2023-12-07T15:39:59;0.50;99.90
29501;DHT22;16450;50.288;10.966;2023-12-07T15:43:01;0.50;99.90
29501;DHT22;16450;50.288;10.966;2023-12-07T15:46:03;0.50;99.90
29501;DHT22;16450;50.288;10.966;2023-12-07T15:49:05;0.40;99.90
29501;DHT22;16450;50.288;10.966;2023-12-07T15:52:07;0.40;99.90
29501;DHT22;16450;50.288;10.966;2023-12-07T15:55:09;0.40;99.90
29501;DHT22;16450;50.288;10.966;2023-12-07T15:58:11;0.30;99.90
29501;DHT22;16450;50.288;10.966;2023-12-07T16:01:15;0.30;99.90
29501;DHT22;16450;50.288;10.966;2023-12-07T16:04:17;0.20;99.90
29501;DHT22;16450;50.288;10.966;2023-12-07T16:07:33;0.10;99.90
29501;DHT22;16450;50.288;10.966;2023-12-07T16:10:35;0.00;99.90
29501;DHT22;16450;50.288;10.966;2023-12-07T16:13:37;0.00;99.90
29501;DHT22;16450;50.288;10.966;2023-12-07T16:16:39;0.00;99.90
29501;DHT22;16450;50.288;10.966;2023-12-07T16:19:41;-0.10;99.90
29501;DHT22;16450;50.288;10.966;2023-12-07T16:22:44;-0.20;99.90
29501;DHT22;16450;50.288;10.966;2023-12-07T16:25:46;-0.20;99.90
29501;DHT22;16450;50.288;10.966;2023-12-07T16:28:47;-0.30;99.90
29501;DHT22;16450;50.288;10.966;2023-12-07T16:31:49;-0.30;99.90
29501;DHT22;16450;50.288;10.966;2023-12-07T16:34:52;-0.40;99.90
29501;DHT22;16450;50.288;10.966;2023-12-07T16:37:53;-0.40;99.90
29501;DHT22;16450;50.288;10.966;2023-12-07T16:40:55;-0.50;99.90
29501;DHT22;16450;50.288;10.966;2023-12-07T16:44:00;-0.50;99.90
29501;DHT22;16450;50.288;10.966;2023-12-07T16:47:03;-0.50;99.90
29501;DHT22;16450;50.288;10.966;2023-12-07T16:50:05;-0.50;99.90
29501;DHT22;16450;50.288;10.966;2023-12-07T16:53:08;-0.50;99.90
29501;DHT22;16450;50.288;10.966;2023-12-07T16:56:10;-0.50;99.90
29501;DHT22;16450;50.288;10.966;2023-12-07T16:59:12;-0.50;99.90
29501;DHT22;16450;50.288;10.966;2023-12-07T17:02:14;-0.40;99.90
29501;DHT22;16450;50.288;10.966;2023-12-07T17:05:16;-0.40;99.90
29501;DHT22;16450;50.288;10.966;2023-12-07T17:08:19;-0.40;99.90
29501;DHT22;16450;50.288;10.966;2023-12-07T17:11:22;-0.40;99.90
29501;DHT22;16450;50.288;10.966;2023-12-07T17:14:24;-0.40;99.90
29501;DHT22;16450;50.288;10.966;2023-12-07T17:17:26;-0.50;99.90
29501;DHT22;16450;50.288;10.966;2023-12-07T17:20:29;-0.50;99.90
29501;DHT22;16450;50.288;10.966;2023-12-07T17:23:31;-0.50;99.90
29501;DHT22;16450;50.288;10.966;2023-12-07T17:26:34;-0.50;99.90
29501;DHT22;16450;50.288;10.966;2023-12-07T17:29:50;-0.50;99.90
29501;DHT22;16450;50.288;10.966;2023-12-07T17:32:52;-0.50;99.90
29501;DHT22;16450;50.288;10.966;2023-12-07T17:35:53;-0.60;99.90
29501;DHT22;16450;50.288;10.966;2023-12-07T17:38:55;-0.60;99.90
29501;DHT22;16450;50.288;10.966;2023-12-07T17:41:58;-0.60;99.90
29501;DHT22;16450;50.288;10.966;2023-12-07T17:44:59;-0.60;99.90
29501;DHT22;16450;50.288;10.966;2023-12-07T17:48:02;-0.60;99.90
29501;DHT22;16450;50.288;10.966;2023-12-07T17:51:04;-0.70;99.90
29501;DHT22;16450;50.288;10.966;2023-12-07T17:54:06;-0.70;99.90
29501;DHT22;16450;50.288;10.966;2023-12-07T17:57:08;-0.80;99.90
29501;DHT22;16450;50.288;10.966;2023-12-07T18:00:10;-0.80;99.90
29501;DHT22;16450;50.288;10.966;2023-12-07T18:03:12;-0.80;99.90
29501;DHT22;16450;50.288;10.966;2023-12-07T18:06:14;-0.80;99.90
29501;DHT22;16450;50.288;10.966;2023-12-07T18:09:17;-0.90;99.90
29501;DHT22;16450;50.288;10.966;2023-12-07T18:12:18;-0.90;99.90
29501;DHT22;16450;50.288;10.966;2023-12-07T18:15:20;-0.90;99.90
29501;DHT22;16450;50.288;10.966;2023-12-07T18:18:22;-1.00;99.90
29501;DHT22;16450;50.288;10.966;2023-12-07T18:21:24;-1.00;99.90
29501;DHT22;16450;50.288;10.966;2023-12-07T18:24:26;-1.00;99.90
29501;DHT22;16450;50.288;10.966;2023-12-07T18:27:28;-1.00;99.90
29501;DHT22;16450;50.288;10.966;2023-12-07T18:30:30;-1.10;99.90
29501;DHT22;16450;50.288;10.966;2023-12-07T18:33:32;-1.10;99.90
29501;DHT22;16450;50.288;10.966;2023-12-07T18:36:35;-1.10;99.90
29501;DHT22;16450;50.288;10.966;2023-12-07T18:39:37;-1.20;99.90
29501;DHT22;16450;50.288;10.966;2023-12-07T18:42:39;-1.20;99.90
29501;DHT22;16450;50.288;10.966;2023-12-07T18:45:41;-1.30;99.90
29501;DHT22;16450;50.288;10.966;2023-12-07T18:48:44;-1.30;99.90
29501;DHT22;16450;50.288;10.966;2023-12-07T18:51:46;-1.30;99.90
29501;DHT22;16450;50.288;10.966;2023-12-07T18:54:48;-1.40;99.90
29501;DHT22;16450;50.288;10.966;2023-12-07T18:57:50;-1.30;99.90
29501;DHT22;16450;50.288;10.966;2023-12-07T19:00:54;-1.40;99.90
29501;DHT22;16450;50.288;10.966;2023-12-07T19:03:56;-1.40;99.90
29501;DHT22;16450;50.288;10.966;2023-12-07T19:06:58;-1.50;99.90
29501;DHT22;16450;50.288;10.966;2023-12-07T19:10:04;-1.50;99.90
29501;DHT22;16450;50.288;10.966;2023-12-07T19:13:06;-1.60;99.90
29501;DHT22;16450;50.288;10.966;2023-12-07T19:16:08;-1.60;99.90
29501;DHT22;16450;50.288;10.966;2023-12-07T19:19:11;-1.60;99.90